createdAt,value
2023-05-14T00:01:48.936Z,101168.81
2023-05-14T00:06:42.149Z,101030.66
2023-05-14T00:11:35.343Z,101240.19
2023-05-14T00:16:27.811Z,101139.50
2023-05-14T00:21:20.474Z,101252.56
2023-05-14T00:26:12.668Z,101217.38
2023-05-14T00:31:08.909Z,101240.03
2023-05-14T00:36:01.005Z,101203.00
2023-05-14T00:40:55.479Z,101200.38
2023-05-14T00:45:51.941Z,101141.38
2023-05-14T00:50:44.131Z,101143.59
2023-05-14T00:55:43.459Z,101231.94
2023-05-14T01:00:37.298Z,101203.63
2023-05-14T01:06:01.284Z,101199.97
2023-05-14T01:11:04.974Z,101199.56
2023-05-14T01:16:02.058Z,101220.19
2023-05-14T01:20:57.453Z,101112.59
2023-05-14T01:25:51.283Z,101152.44
2023-05-14T01:31:02.120Z,101163.16
2023-05-14T01:35:55.510Z,101195.94
2023-05-14T01:40:49.270Z,101209.88
2023-05-14T01:45:42.694Z,101068.19
2023-05-14T01:50:34.933Z,101078.25
2023-05-14T01:55:27.320Z,101183.38
2023-05-14T02:00:20.837Z,101164.56
2023-05-14T02:05:13.472Z,101052.56
2023-05-14T02:10:08.463Z,100970.75
2023-05-14T02:15:00.428Z,101166.38
2023-05-14T02:19:53.327Z,101154.22
2023-05-14T02:24:45.227Z,101184.16
2023-05-14T02:29:39.571Z,101158.06
2023-05-14T02:34:34.156Z,101027.66
2023-05-14T02:39:27.497Z,101107.94
2023-05-14T02:44:22.894Z,101165.50
2023-05-14T02:49:17.425Z,101146.41
2023-05-14T02:54:09.746Z,101162.38
2023-05-14T02:59:05.872Z,101178.81
2023-05-14T03:03:59.984Z,101184.09
2023-05-14T03:08:52.272Z,101055.75
2023-05-14T03:13:44.776Z,101163.41
2023-05-14T03:18:36.999Z,101184.84
2023-05-14T03:23:29.802Z,101176.22
2023-05-14T03:28:29.171Z,101176.44
2023-05-14T03:33:21.393Z,101127.38
2023-05-14T03:38:17.462Z,101150.38
2023-05-14T03:43:11.831Z,101039.63
2023-05-14T03:48:05.060Z,101152.63
2023-05-14T03:52:59.451Z,101104.31
2023-05-14T03:57:51.592Z,101177.81
2023-05-14T04:02:48.130Z,101106.00
2023-05-14T04:07:46.065Z,101180.69
2023-05-14T04:12:39.171Z,101150.75
2023-05-14T04:17:41.092Z,101048.66
2023-05-14T04:22:40.810Z,101067.34
2023-05-14T04:27:34.466Z,101165.41
2023-05-14T04:32:27.674Z,101124.59
2023-05-14T04:37:21.112Z,101147.00
2023-05-14T04:42:14.759Z,101056.50
2023-05-14T04:47:07.054Z,101174.50
2023-05-14T04:51:59.882Z,101158.09
2023-05-14T04:56:52.385Z,101177.63
2023-05-14T05:01:46.839Z,101058.09
2023-05-14T05:06:41.401Z,101076.06
2023-05-14T05:11:33.492Z,101160.00
2023-05-14T05:16:25.746Z,101166.22
2023-05-14T05:21:18.099Z,101161.66
2023-05-14T05:26:10.282Z,101165.34
2023-05-14T05:31:02.477Z,101157.78
2023-05-14T05:35:54.450Z,101165.41
2023-05-14T05:40:47.116Z,101154.75
2023-05-14T05:45:39.560Z,101164.53
2023-05-14T05:50:32.458Z,101161.91
2023-05-14T05:55:24.636Z,101164.63
2023-05-14T06:00:17.462Z,101161.94
2023-05-14T06:05:10.678Z,101163.41
2023-05-14T06:10:03.318Z,101168.72
2023-05-14T06:14:57.811Z,101167.19
2023-05-14T06:19:49.933Z,101168.41
2023-05-14T06:24:43.370Z,101177.66
2023-05-14T06:29:35.505Z,101173.59
2023-05-14T06:34:27.706Z,101178.28
2023-05-14T06:39:19.781Z,101169.81
2023-05-14T06:44:11.960Z,101094.69
2023-05-14T06:49:04.541Z,101161.03
2023-05-14T06:53:57.993Z,101077.81
2023-05-14T06:58:50.201Z,101102.94
2023-05-14T07:03:42.371Z,101051.63
2023-05-14T07:08:34.751Z,101123.47
2023-05-14T07:13:28.883Z,101146.53
2023-05-14T07:18:22.570Z,101150.38
2023-05-14T07:23:16.586Z,101049.88
2023-05-14T07:28:09.642Z,101153.47
2023-05-14T07:33:02.690Z,101033.28
2023-05-14T07:37:56.664Z,101050.78
2023-05-14T07:42:49.633Z,101068.69
2023-05-14T07:47:43.505Z,101106.81
2023-05-14T07:52:36.064Z,101110.09
2023-05-14T07:57:28.440Z,101123.31
2023-05-14T08:02:22.194Z,101128.75
2023-05-14T08:07:15.196Z,101127.44
2023-05-14T08:12:07.841Z,101091.84
2023-05-14T08:17:00.249Z,101060.16
2023-05-14T08:21:52.501Z,101082.81
2023-05-14T08:26:45.271Z,101094.94
2023-05-14T08:31:38.704Z,101125.78
2023-05-14T08:36:32.966Z,101123.06
2023-05-14T08:41:25.932Z,101110.16
2023-05-14T08:46:22.502Z,101114.13
2023-05-14T08:51:14.863Z,101098.53
2023-05-14T08:56:09.052Z,101106.44
2023-05-14T09:01:01.316Z,101019.66
2023-05-14T09:05:54.142Z,101083.34
2023-05-14T09:10:47.179Z,101039.41
2023-05-14T09:15:41.782Z,101074.00
2023-05-14T09:20:33.820Z,101049.78
2023-05-14T09:25:32.994Z,101040.44
2023-05-14T09:30:27.447Z,101044.50
2023-05-14T09:35:21.729Z,101008.13
2023-05-14T10:37:07.400Z,101009.56
2023-05-14T10:42:05.869Z,101012.84
2023-05-14T10:46:59.831Z,100915.31
2023-05-14T10:51:58.489Z,101019.16
2023-05-14T10:56:53.027Z,101012.78
2023-05-14T11:01:46.490Z,100964.47
2023-05-14T11:06:40.532Z,100972.63
2023-05-14T11:11:35.890Z,100895.00
2023-05-14T11:16:44.244Z,100977.94
2023-05-14T11:22:02.719Z,100921.19
2023-05-14T11:27:01.178Z,100898.03
2023-05-14T11:31:55.830Z,100977.00
2023-05-14T11:36:48.175Z,100978.31
2023-05-14T11:41:46.520Z,100965.59
2023-05-14T11:46:39.156Z,100884.50
2023-05-14T11:51:34.151Z,100931.75
2023-05-14T11:56:26.435Z,100878.19
2023-05-14T12:01:19.458Z,100923.41
2023-05-14T12:06:13.549Z,100898.06
2023-05-14T12:11:07.242Z,100932.75
2023-05-14T12:16:02.375Z,100806.44
2023-05-14T12:20:56.735Z,100916.44
2023-05-14T12:25:52.577Z,100898.53
2023-05-14T12:30:47.514Z,100905.25
2023-05-14T12:35:41.141Z,100802.88
2023-05-14T12:40:40.526Z,100889.03
2023-05-14T12:45:33.105Z,100888.34
2023-05-14T12:50:25.481Z,100840.47
2023-05-14T12:55:21.080Z,100885.59
2023-05-14T13:00:18.570Z,100806.03
2023-05-14T13:05:11.849Z,100816.38
2023-05-14T13:15:16.739Z,100869.91
2023-05-14T13:20:10.104Z,100859.06
2023-05-14T13:25:03.824Z,100858.69
2023-05-14T13:29:55.981Z,100789.53
2023-05-14T13:34:48.085Z,100784.22
2023-05-14T13:39:41.150Z,100748.22
2023-05-14T13:49:53.818Z,100787.16
2023-05-14T13:54:46.649Z,100827.63
2023-05-14T13:59:40.900Z,100788.44
2023-05-14T14:04:33.635Z,100743.41
2023-05-14T14:09:26.081Z,100785.19
2023-05-14T14:14:18.806Z,100738.69
2023-05-14T14:19:13.024Z,100806.47
2023-05-14T14:24:08.381Z,100767.00
2023-05-14T14:29:00.449Z,100694.06
2023-05-14T14:33:53.450Z,100803.34
2023-05-14T14:38:45.958Z,100702.22
2023-05-14T14:43:41.432Z,100788.31
2023-05-14T14:53:55.773Z,100722.63
2023-05-14T14:58:47.841Z,100763.66
2023-05-14T15:03:42.091Z,100772.34
2023-05-14T15:08:35.707Z,100735.47
2023-05-14T15:13:28.959Z,100759.06
2023-05-14T15:18:21.582Z,100681.84
2023-05-14T15:23:13.624Z,100736.97
2023-05-14T15:28:07.596Z,100744.22
2023-05-14T15:33:00.144Z,100733.50
2023-05-14T15:37:56.190Z,100762.63
2023-05-14T15:42:48.828Z,100752.72
2023-05-14T15:47:41.858Z,100759.06
2023-05-14T15:52:35.590Z,100676.34
2023-05-14T15:57:28.232Z,100752.03
2023-05-14T16:02:20.764Z,100675.69
2023-05-14T16:07:13.594Z,100734.19
2023-05-14T16:12:09.721Z,100746.22
2023-05-14T16:17:02.246Z,100745.84
2023-05-14T16:21:54.840Z,100682.47
2023-05-14T16:26:47.064Z,100735.78
2023-05-14T16:31:40.101Z,100688.09
2023-05-14T16:36:36.519Z,100749.50
2023-05-14T16:41:32.668Z,100650.88
2023-05-14T16:46:30.014Z,100753.28
2023-05-14T16:51:22.767Z,100650.34
2023-05-14T16:56:14.938Z,100637.41
2023-05-14T17:07:49.282Z,100758.53
2023-05-14T17:12:41.671Z,100727.03
2023-05-14T17:17:35.937Z,100674.16
2023-05-14T17:22:30.818Z,100760.09
2023-05-14T17:27:23.419Z,100720.59
2023-05-14T17:32:15.953Z,100759.41
2023-05-14T17:37:08.188Z,100761.91
2023-05-14T17:42:02.143Z,100701.09
2023-05-14T17:46:54.541Z,100541.00
2023-05-14T17:51:48.796Z,100709.09
2023-05-14T17:56:42.207Z,100773.19
2023-05-14T18:01:35.569Z,100716.31
2023-05-14T18:06:29.155Z,100709.25
2023-05-14T18:11:21.605Z,100759.38
2023-05-14T18:16:14.008Z,100792.94
2023-05-14T18:21:09.167Z,100775.78
2023-05-14T18:26:04.461Z,100786.84
2023-05-14T18:30:57.993Z,100763.03
2023-05-14T18:35:51.902Z,100783.53
2023-05-14T18:40:47.868Z,100813.47
2023-05-14T18:45:40.604Z,100591.09
2023-05-14T18:55:50.766Z,100772.31
2023-05-14T19:00:43.433Z,100790.69
2023-05-14T19:05:38.788Z,100698.06
2023-05-14T19:10:35.378Z,100773.94
2023-05-14T19:15:32.806Z,100823.44
2023-05-14T19:20:25.979Z,100823.72
2023-05-14T19:25:19.455Z,100825.03
2023-05-14T19:30:13.770Z,100830.34
2023-05-14T19:35:06.638Z,100823.19
2023-05-14T19:40:00.312Z,100836.78
2023-05-14T19:44:52.571Z,100830.66
2023-05-14T19:49:49.550Z,100850.63
2023-05-14T19:54:46.538Z,100850.34
2023-05-14T19:59:39.523Z,100852.22
2023-05-14T20:04:32.094Z,100780.53
2023-05-14T20:09:24.440Z,100802.88
2023-05-14T20:19:33.051Z,100843.78
2023-05-14T20:24:25.360Z,100786.56
2023-05-14T20:29:20.480Z,100853.09
2023-05-14T20:34:12.579Z,100847.19
2023-05-14T20:39:06.899Z,100849.56
2023-05-14T20:43:59.606Z,100825.19
2023-05-14T22:34:43.057Z,100811.94
2023-05-14T22:39:35.378Z,100772.81
2023-05-14T22:44:30.064Z,100719.72
2023-05-14T22:49:22.168Z,100777.41
2023-05-14T22:54:14.322Z,100785.13
2023-05-14T22:59:07.345Z,100768.66
2023-05-14T23:03:59.217Z,100782.50
2023-05-14T23:08:51.181Z,100776.28
2023-05-14T23:13:43.169Z,100773.66
2023-05-14T23:18:35.178Z,100774.06
2023-05-14T23:23:28.073Z,100761.81
2023-05-14T23:28:19.920Z,100730.94
2023-05-14T23:33:12.660Z,100755.66
2023-05-14T23:38:08.163Z,100765.09
2023-05-14T23:43:01.114Z,100747.47
2023-05-14T23:47:57.178Z,100700.47
2023-05-14T23:52:49.168Z,100739.31
2023-05-14T23:57:41.846Z,100640.69
